createdAt,value
2019-02-04T00:02:15.674Z,10.50
2019-02-04T00:04:45.883Z,16.33
2019-02-04T00:07:16.116Z,10.00
2019-02-04T00:09:46.375Z,12.43
2019-02-04T00:12:16.645Z,12.00
2019-02-04T00:14:46.927Z,12.00
2019-02-04T00:17:17.195Z,11.00
2019-02-04T00:19:47.502Z,10.17
2019-02-04T00:22:17.716Z,16.73
2019-02-04T00:24:47.892Z,11.57
2019-02-04T00:27:18.152Z,15.33
2019-02-04T00:29:48.375Z,13.23
2019-02-04T00:32:18.621Z,17.97
2019-02-04T00:34:49.160Z,16.03
2019-02-04T00:37:19.316Z,16.03
2019-02-04T00:39:49.599Z,13.20
2019-02-04T00:42:19.866Z,14.87
2019-02-04T00:44:50.122Z,15.87
2019-02-04T00:47:20.412Z,14.83
2019-02-04T00:49:50.595Z,13.87
2019-02-04T00:52:20.858Z,19.50
2019-02-04T00:54:50.963Z,18.20
2019-02-04T00:57:21.163Z,14.60
2019-02-04T00:59:51.457Z,14.93
2019-02-04T01:02:21.940Z,19.25
2019-02-04T01:04:52.252Z,17.70
2019-02-04T01:07:22.586Z,15.07
2019-02-04T01:09:52.866Z,17.37
2019-02-04T01:12:23.085Z,18.48
2019-02-04T01:14:53.681Z,17.13
2019-02-04T01:17:23.923Z,18.05
2019-02-04T01:19:53.987Z,20.83
2019-02-04T01:22:24.181Z,20.30
2019-02-04T01:24:54.328Z,17.53
2019-02-04T01:27:24.540Z,18.30
2019-02-04T01:29:54.679Z,18.27
2019-02-04T01:32:24.881Z,19.25
2019-02-04T01:34:55.056Z,19.75
2019-02-04T01:37:25.304Z,20.17
2019-02-04T01:39:55.516Z,18.33
2019-02-04T01:42:25.740Z,21.03
2019-02-04T01:44:55.949Z,16.43
2019-02-04T01:47:26.143Z,17.30
2019-02-04T01:49:56.298Z,15.67
2019-02-04T01:52:35.817Z,20.97
2019-02-04T01:55:08.103Z,17.83
2019-02-04T01:57:38.311Z,17.07
2019-02-04T02:00:17.263Z,16.90
2019-02-04T02:02:47.551Z,22.53
2019-02-04T02:05:18.106Z,15.45
2019-02-04T02:07:48.573Z,17.77
2019-02-04T02:10:21.424Z,17.13
2019-02-04T02:12:51.830Z,17.20
2019-02-04T02:15:22.380Z,20.05
2019-02-04T02:17:52.765Z,16.57
2019-02-04T02:20:26.252Z,17.12
2019-02-04T02:22:56.639Z,16.00
2019-02-04T02:25:26.878Z,16.23
2019-02-04T02:27:57.233Z,19.37
2019-02-04T02:30:31.055Z,17.67
2019-02-04T02:33:01.624Z,17.00
2019-02-04T02:35:31.940Z,20.67
2019-02-04T02:38:02.231Z,20.13
2019-02-04T02:40:36.253Z,15.23
2019-02-04T02:43:06.973Z,21.05
2019-02-04T02:45:37.136Z,19.47
2019-02-04T02:48:07.391Z,19.10
2019-02-04T02:50:37.583Z,20.53
2019-02-04T02:53:08.041Z,18.07
2019-02-04T02:55:38.534Z,22.07
2019-02-04T02:58:08.952Z,18.53
2019-02-04T03:00:39.187Z,22.50
2019-02-04T03:03:09.514Z,19.20
2019-02-04T03:05:39.729Z,27.53
2019-02-04T03:08:10.044Z,22.53
2019-02-04T03:10:40.289Z,20.30
2019-02-04T03:13:10.600Z,23.60
2019-02-04T03:15:40.718Z,21.70
2019-02-04T03:18:10.985Z,20.72
2019-02-04T03:20:41.150Z,18.40
2019-02-04T03:23:11.519Z,18.07
2019-02-04T03:25:41.651Z,22.62
2019-02-04T03:28:11.966Z,22.33
2019-02-04T03:30:42.249Z,20.50
2019-02-04T03:33:12.556Z,24.27
2019-02-04T03:35:43.144Z,19.17
2019-02-04T03:38:13.315Z,23.93
2019-02-04T03:40:43.582Z,21.47
2019-02-04T03:43:13.831Z,23.67
2019-02-04T03:45:44.033Z,24.80
2019-02-04T03:48:14.266Z,20.00
2019-02-04T03:50:44.545Z,24.33
2019-02-04T03:53:14.766Z,26.43
2019-02-04T03:55:45.008Z,25.27
2019-02-04T03:58:15.319Z,24.67
2019-02-04T04:00:45.687Z,25.80
2019-02-04T04:03:15.948Z,24.27
2019-02-04T04:05:46.104Z,27.77
2019-02-04T04:08:16.377Z,29.23
2019-02-04T04:10:46.661Z,26.80
2019-02-04T04:13:16.936Z,31.03
2019-02-04T04:15:47.350Z,27.30
2019-02-04T04:18:17.655Z,30.67
2019-02-04T04:20:47.966Z,28.80
2019-02-04T04:23:21.113Z,26.67
2019-02-04T04:25:51.441Z,28.07
2019-02-04T04:28:21.971Z,32.75
2019-02-04T04:30:52.248Z,26.60
2019-02-04T04:33:22.617Z,29.77
2019-02-04T04:35:52.805Z,26.73
2019-02-04T04:38:23.059Z,32.38
2019-02-04T04:40:53.396Z,31.50
2019-02-04T04:43:23.614Z,29.80
2019-02-04T04:45:53.782Z,33.40
2019-02-04T04:48:26.706Z,30.40
2019-02-04T04:50:56.034Z,34.80
2019-02-04T04:53:26.303Z,31.07
2019-02-04T04:55:56.542Z,29.80
2019-02-04T04:58:26.703Z,33.33
2019-02-04T05:00:57.002Z,31.67
2019-02-04T05:03:27.347Z,33.13
2019-02-04T05:05:57.571Z,36.17
2019-02-04T05:08:28.266Z,33.33
2019-02-04T05:10:58.817Z,37.30
2019-02-04T05:13:28.958Z,36.37
2019-02-04T05:15:59.241Z,32.13
2019-02-04T05:18:37.852Z,34.13
2019-02-04T05:21:01.468Z,36.03
2019-02-04T05:23:31.712Z,35.38
2019-02-04T05:26:01.964Z,32.80
2019-02-04T05:28:32.250Z,32.50
2019-02-04T05:31:02.535Z,32.80
2019-02-04T05:33:32.875Z,39.03
2019-02-04T05:36:03.096Z,35.20
2019-02-04T05:38:33.419Z,38.17
2019-02-04T05:41:03.714Z,39.80
2019-02-04T05:43:33.896Z,35.10
2019-02-04T05:46:04.729Z,32.50
2019-02-04T05:48:35.158Z,33.77
2019-02-04T05:51:05.494Z,38.47
2019-02-04T05:53:35.746Z,38.40
2019-02-04T05:56:07.144Z,39.55
2019-02-04T05:58:37.375Z,33.37
2019-02-04T06:01:07.907Z,35.07
2019-02-04T06:03:38.134Z,34.87
2019-02-04T06:06:08.434Z,35.13
2019-02-04T06:08:38.709Z,37.83
2019-02-04T06:11:09.063Z,37.93
2019-02-04T06:13:39.179Z,38.93
2019-02-04T06:16:09.491Z,31.00
2019-02-04T06:18:39.732Z,36.97
2019-02-04T06:21:10.113Z,31.90
2019-02-04T06:23:40.228Z,39.70
2019-02-04T06:26:11.570Z,37.17
2019-02-04T06:28:41.993Z,37.37
2019-02-04T06:31:12.933Z,32.97
2019-02-04T06:33:43.296Z,34.60
2019-02-04T06:36:16.545Z,32.73
2019-02-04T06:38:55.315Z,33.20
2019-02-04T06:41:27.488Z,35.50
2019-02-04T06:43:57.811Z,35.23
2019-02-04T06:46:28.055Z,34.40
2019-02-04T06:48:58.442Z,36.10
2019-02-04T06:51:31.908Z,36.33
2019-02-04T06:54:04.395Z,33.87
2019-02-04T06:56:36.084Z,33.40
2019-02-04T06:59:07.378Z,36.75
2019-02-04T07:01:40.703Z,33.23
2019-02-04T07:04:11.367Z,35.23
2019-02-04T07:06:41.632Z,38.37
2019-02-04T07:09:13.046Z,34.33
2019-02-04T07:11:43.372Z,35.27
2019-02-04T07:14:13.676Z,36.43
2019-02-04T07:16:44.079Z,39.77
2019-02-04T07:19:23.947Z,40.97
2019-02-04T07:21:46.341Z,35.97
2019-02-04T07:24:16.606Z,33.07
2019-02-04T07:26:46.853Z,35.73
2019-02-04T07:29:17.278Z,37.60
2019-02-04T07:31:47.874Z,38.80
2019-02-04T07:34:18.186Z,37.53
2019-02-04T07:36:48.497Z,36.23
2019-02-04T07:39:18.852Z,38.30
2019-02-04T07:41:49.120Z,34.27
2019-02-04T07:44:19.654Z,36.03
2019-02-04T07:46:51.011Z,33.00
2019-02-04T07:49:21.428Z,32.60
2019-02-04T07:51:51.793Z,37.03
2019-02-04T07:54:22.194Z,34.37
2019-02-04T07:56:52.789Z,33.20
2019-02-04T07:59:22.981Z,33.97
2019-02-04T08:01:53.223Z,35.23
2019-02-04T08:04:23.517Z,37.87
2019-02-04T08:06:53.849Z,33.23
2019-02-04T08:09:24.111Z,35.98
2019-02-04T08:11:54.805Z,36.23
2019-02-04T08:14:25.342Z,34.83
2019-02-04T08:16:55.548Z,33.50
2019-02-04T08:19:28.076Z,33.00
2019-02-04T08:21:58.355Z,37.03
2019-02-04T08:24:33.994Z,30.87
2019-02-04T08:27:04.334Z,30.43
2019-02-04T08:29:36.960Z,36.30
2019-02-04T08:32:07.236Z,33.23
2019-02-04T08:34:37.451Z,21.83
2019-02-04T08:37:08.219Z,33.93
2019-02-04T08:39:38.583Z,33.00
2019-02-04T08:42:08.963Z,30.07
2019-02-04T08:44:39.213Z,33.67
2019-02-04T08:47:09.465Z,31.97
2019-02-04T08:49:39.763Z,31.23
2019-02-04T08:52:10.301Z,31.83
2019-02-04T08:54:40.568Z,29.97
2019-02-04T08:57:11.112Z,27.80
2019-02-04T08:59:41.744Z,32.77
2019-02-04T09:02:12.177Z,30.78
2019-02-04T09:04:42.632Z,30.60
2019-02-04T09:07:12.861Z,27.07
2019-02-04T09:09:43.139Z,26.23
2019-02-04T09:12:13.743Z,23.33
2019-02-04T09:14:44.059Z,25.77
2019-02-04T09:17:14.277Z,25.77
2019-02-04T09:19:44.609Z,26.23
2019-02-04T09:22:14.957Z,27.60
2019-02-04T09:24:45.211Z,25.53
2019-02-04T09:27:16.706Z,28.10
2019-02-04T09:29:47.010Z,23.40
2019-02-04T09:32:19.000Z,26.90
2019-02-04T09:34:49.634Z,27.37
2019-02-04T09:37:19.974Z,27.07
2019-02-04T09:39:50.304Z,26.33
2019-02-04T09:42:20.597Z,23.70
2019-02-04T09:44:50.843Z,19.23
2019-02-04T09:47:21.140Z,25.63
2019-02-04T09:49:51.450Z,32.80
2019-02-04T09:52:21.585Z,23.07
2019-02-04T09:54:51.833Z,25.40
2019-02-04T09:57:22.124Z,24.72
2019-02-04T09:59:52.521Z,22.40
2019-02-04T10:02:23.326Z,28.53
2019-02-04T10:04:53.635Z,30.30
2019-02-04T10:07:24.212Z,20.63
2019-02-04T10:09:54.557Z,22.77
2019-02-04T10:12:24.607Z,26.03
2019-02-04T10:14:55.235Z,18.60
2019-02-04T10:17:25.517Z,23.80
2019-02-04T10:19:55.913Z,23.73
2019-02-04T10:22:28.566Z,23.07
2019-02-04T10:24:58.898Z,24.00
2019-02-04T10:27:29.663Z,18.70
2019-02-04T10:30:00.042Z,23.75
2019-02-04T10:32:30.398Z,23.40
2019-02-04T10:35:00.958Z,21.63
2019-02-04T10:37:31.445Z,21.13
2019-02-04T10:40:01.747Z,18.67
2019-02-04T10:42:35.191Z,19.77
2019-02-04T10:45:08.160Z,21.60
2019-02-04T10:47:38.897Z,20.73
2019-02-04T10:50:29.506Z,21.37
2019-02-04T10:53:02.595Z,24.10
2019-02-04T10:55:33.011Z,22.53
2019-02-04T10:58:06.458Z,20.83
2019-02-04T11:00:36.963Z,22.13
2019-02-04T11:03:09.074Z,21.57
2019-02-04T11:05:39.828Z,20.93
2019-02-04T11:08:11.434Z,22.33
2019-02-04T11:10:42.412Z,21.93
2019-02-04T11:13:17.947Z,20.72
2019-02-04T11:15:50.668Z,21.40
2019-02-04T11:18:20.980Z,18.57
2019-02-04T11:20:58.064Z,20.70
2019-02-04T11:23:24.517Z,18.45
2019-02-04T11:25:54.801Z,20.30
2019-02-04T11:28:26.679Z,19.10
2019-02-04T11:31:03.186Z,18.17
2019-02-04T11:33:33.615Z,21.33
2019-02-04T11:36:06.538Z,17.47
2019-02-04T11:38:37.472Z,20.20
2019-02-04T11:41:08.154Z,16.57
2019-02-04T11:43:42.751Z,19.27
2019-02-04T11:46:13.189Z,19.35
2019-02-04T11:48:45.712Z,18.37
2019-02-04T11:51:18.286Z,16.43
2019-02-04T11:53:49.519Z,21.33
2019-02-04T11:56:23.178Z,18.30
2019-02-04T11:58:53.583Z,17.27
2019-02-04T12:01:23.986Z,16.45
2019-02-04T12:03:54.645Z,16.47
2019-02-04T12:06:28.074Z,16.27
2019-02-04T12:09:01.234Z,17.37
2019-02-04T12:11:31.685Z,15.77
2019-02-04T12:14:02.189Z,13.80
2019-02-04T12:16:32.540Z,16.73
2019-02-04T12:19:03.496Z,18.63
2019-02-04T12:21:34.530Z,17.07
2019-02-04T12:24:05.117Z,16.83
2019-02-04T12:26:35.394Z,15.67
2019-02-04T12:29:08.717Z,12.03
2019-02-04T12:31:39.251Z,17.97
2019-02-04T12:34:10.163Z,16.57
2019-02-04T12:36:40.489Z,15.30
2019-02-04T12:39:19.798Z,16.40
2019-02-04T12:41:50.744Z,15.20
2019-02-04T12:44:21.411Z,14.93
2019-02-04T12:46:51.747Z,16.60
2019-02-04T12:49:25.745Z,14.50
2019-02-04T12:51:56.263Z,15.93
2019-02-04T12:54:26.828Z,12.83
2019-02-04T12:56:57.152Z,14.63
2019-02-04T12:59:27.551Z,19.17
2019-02-04T13:01:57.961Z,14.47
2019-02-04T13:04:28.289Z,14.37
2019-02-04T13:06:59.007Z,15.93
2019-02-04T13:09:29.238Z,14.60
2019-02-04T13:11:59.568Z,15.17
2019-02-04T13:14:29.770Z,13.50
2019-02-04T13:17:00.150Z,12.47
2019-02-04T13:19:30.369Z,16.43
2019-02-04T13:22:00.806Z,13.10
2019-02-04T13:24:31.147Z,14.17
2019-02-04T13:27:01.431Z,15.40
2019-02-04T13:29:31.650Z,18.63
2019-02-04T13:32:02.083Z,13.60
2019-02-04T13:34:32.542Z,14.50
2019-02-04T13:37:02.788Z,18.93
2019-02-04T13:39:35.234Z,12.73
2019-02-04T13:42:06.996Z,11.50
2019-02-04T13:44:37.368Z,17.40
2019-02-04T13:47:08.129Z,13.50
2019-02-04T13:49:38.325Z,13.80
2019-02-04T13:52:08.624Z,14.17
2019-02-04T13:54:39.007Z,14.70
2019-02-04T13:57:09.345Z,14.43
2019-02-04T13:59:40.143Z,15.10
2019-02-04T14:02:13.712Z,15.97
2019-02-04T14:04:46.798Z,17.07
2019-02-04T14:07:21.341Z,15.07
2019-02-04T14:09:53.450Z,12.90
2019-02-04T14:12:25.059Z,14.93
2019-02-04T14:14:55.654Z,10.87
2019-02-04T14:17:25.919Z,16.53
2019-02-04T14:19:58.163Z,13.33
2019-02-04T14:22:28.447Z,14.30
2019-02-04T14:24:58.727Z,15.47
2019-02-04T14:27:29.068Z,14.90
2019-02-04T14:29:59.417Z,16.13
2019-02-04T14:32:29.657Z,15.73
2019-02-04T14:35:01.180Z,13.43
2019-02-04T14:37:31.452Z,14.47
2019-02-04T14:40:01.700Z,13.47
2019-02-04T14:42:31.974Z,14.83
2019-02-04T14:45:54.210Z,17.47
2019-02-04T14:49:24.586Z,15.37
2019-02-04T14:53:08.933Z,16.23
2019-02-04T14:56:12.883Z,18.47
2019-02-04T14:59:29.089Z,17.30
2019-02-04T15:02:35.977Z,16.47
2019-02-04T15:05:31.068Z,15.85
2019-02-04T15:09:04.569Z,17.23
2019-02-04T15:12:16.351Z,15.23
2019-02-04T15:15:47.477Z,17.77
2019-02-04T15:19:27.219Z,18.57
2019-02-04T15:22:48.071Z,19.47
2019-02-04T15:26:17.853Z,16.00
2019-02-04T15:29:31.826Z,16.70
2019-02-04T15:33:13.745Z,16.27
2019-02-04T15:36:52.222Z,18.63
2019-02-04T15:40:10.460Z,16.87
2019-02-04T15:43:26.649Z,15.80
2019-02-04T15:46:25.671Z,20.07
2019-02-04T15:50:11.480Z,17.30
2019-02-04T15:52:45.648Z,18.67
2019-02-04T15:55:18.555Z,19.03
2019-02-04T15:57:48.884Z,17.73
2019-02-04T16:00:19.461Z,18.37
2019-02-04T16:02:52.223Z,15.90
2019-02-04T16:05:22.842Z,19.77
2019-02-04T16:07:53.131Z,21.67
2019-02-04T16:10:23.454Z,18.17
2019-02-04T16:12:53.884Z,19.20
2019-02-04T16:15:24.395Z,17.97
2019-02-04T16:17:54.640Z,17.67
2019-02-04T16:20:26.448Z,18.20
2019-02-04T16:22:59.782Z,16.83
2019-02-04T16:25:56.732Z,18.50
2019-02-04T16:28:34.334Z,16.27
2019-02-04T16:31:05.028Z,19.03
2019-02-04T16:33:35.832Z,14.80
2019-02-04T16:36:07.420Z,14.95
2019-02-04T16:38:42.178Z,14.83
2019-02-04T16:41:28.199Z,13.90
2019-02-04T16:44:06.276Z,14.23
2019-02-04T16:46:45.171Z,13.93
2019-02-04T16:50:25.126Z,13.70
2019-02-04T16:53:10.075Z,15.63
2019-02-04T16:55:49.071Z,14.87
2019-02-04T16:59:12.481Z,16.85
2019-02-04T17:01:55.682Z,15.83
2019-02-04T17:04:55.688Z,16.23
2019-02-04T17:08:33.736Z,16.33
2019-02-04T17:11:44.095Z,14.67
2019-02-04T17:14:58.078Z,13.97
2019-02-04T17:17:21.238Z,17.30
2019-02-04T17:19:58.084Z,16.10
2019-02-04T17:22:30.430Z,17.83
2019-02-04T17:25:18.492Z,17.47
2019-02-04T17:27:58.744Z,19.67
2019-02-04T17:30:55.042Z,15.33
2019-02-04T17:33:31.909Z,17.82
2019-02-04T17:36:07.217Z,18.13
2019-02-04T17:38:37.728Z,17.03
2019-02-04T17:41:08.159Z,19.83
2019-02-04T17:43:38.561Z,15.93
2019-02-04T17:46:08.938Z,18.27
2019-02-04T17:48:39.301Z,17.63
2019-02-04T17:51:09.641Z,19.63
2019-02-04T17:53:39.994Z,17.80
2019-02-04T17:56:11.452Z,18.63
2019-02-04T17:58:46.485Z,15.80
2019-02-04T18:01:19.807Z,23.80
2019-02-04T18:03:50.149Z,17.03
2019-02-04T18:06:20.677Z,20.95
2019-02-04T18:08:50.952Z,16.90
2019-02-04T18:11:21.336Z,21.65
2019-02-04T18:13:51.700Z,19.07
2019-02-04T18:16:25.074Z,16.87
2019-02-04T18:18:55.371Z,19.87
2019-02-04T18:21:25.650Z,17.20
2019-02-04T18:23:59.119Z,20.50
2019-02-04T18:29:20.421Z,20.40
2019-02-04T18:31:50.784Z,20.17
2019-02-04T18:34:21.098Z,21.35
2019-02-04T18:36:52.589Z,21.00
2019-02-04T18:39:26.630Z,15.60
2019-02-04T18:41:56.862Z,22.80
2019-02-04T18:44:29.729Z,20.40
2019-02-04T18:47:02.132Z,26.33
2019-02-04T18:49:32.494Z,23.43
2019-02-04T18:52:07.430Z,21.43
2019-02-04T18:54:39.377Z,20.63
2019-02-04T18:57:14.108Z,21.23
2019-02-04T18:59:44.443Z,24.07
2019-02-04T19:02:16.114Z,23.37
2019-02-04T19:04:46.461Z,23.40
2019-02-04T19:07:16.805Z,20.50
2019-02-04T19:09:50.955Z,19.37
2019-02-04T19:12:28.880Z,19.15
2019-02-04T19:14:59.329Z,21.95
2019-02-04T19:17:36.156Z,17.50
2019-02-04T19:20:09.761Z,20.47
2019-02-04T19:22:40.581Z,23.87
2019-02-04T19:25:11.845Z,20.97
2019-02-04T19:27:42.239Z,23.37
2019-02-04T19:30:47.024Z,22.17
2019-02-04T19:33:17.394Z,21.43
2019-02-04T19:35:49.296Z,20.37
2019-02-04T19:38:23.310Z,21.97
2019-02-04T19:40:53.319Z,21.23
2019-02-04T19:43:27.412Z,23.40
2019-02-04T19:46:01.174Z,24.67
2019-02-04T19:48:36.553Z,20.07
2019-02-04T19:51:07.465Z,21.67
2019-02-04T19:53:38.441Z,21.02
2019-02-04T19:56:24.750Z,22.10
2019-02-04T19:58:57.316Z,18.43
2019-02-04T20:01:30.692Z,21.80
2019-02-04T20:04:01.783Z,18.67
2019-02-04T20:06:32.751Z,22.10
2019-02-04T20:09:06.489Z,17.60
2019-02-04T20:11:40.540Z,21.20
2019-02-04T20:14:17.274Z,19.47
2019-02-04T20:16:48.169Z,20.93
2019-02-04T20:19:32.734Z,20.00
2019-02-04T20:22:03.454Z,18.30
2019-02-04T20:24:38.319Z,24.83
2019-02-04T20:27:16.642Z,19.47
2019-02-04T20:29:52.100Z,21.43
2019-02-04T20:32:22.872Z,21.35
2019-02-04T20:34:59.541Z,22.37
2019-02-04T20:37:30.203Z,19.87
2019-02-04T20:40:01.023Z,21.67
2019-02-04T20:42:31.533Z,26.87
2019-02-04T20:45:03.165Z,21.53
2019-02-04T20:47:33.752Z,25.40
2019-02-04T20:50:04.502Z,24.43
2019-02-04T20:52:35.115Z,22.17
2019-02-04T20:55:07.585Z,19.80
2019-02-04T20:57:38.256Z,21.27
2019-02-04T21:00:13.862Z,23.87
2019-02-04T21:02:44.425Z,25.80
2019-02-04T21:05:19.384Z,22.90
2019-02-04T21:07:50.075Z,24.10
2019-02-04T21:10:22.410Z,24.50
2019-02-04T21:12:53.052Z,24.50
2019-02-04T21:15:24.135Z,23.63
2019-02-04T21:17:54.708Z,27.27
2019-02-04T21:20:26.619Z,25.93
2019-02-04T21:22:57.405Z,25.27
2019-02-04T21:25:28.197Z,24.98
2019-02-04T21:27:58.805Z,24.97
2019-02-04T21:30:32.640Z,26.07
2019-02-04T21:33:03.246Z,24.00
2019-02-04T21:35:33.982Z,26.80
2019-02-04T21:38:05.423Z,25.70
2019-02-04T21:40:37.366Z,29.03
2019-02-04T21:43:08.038Z,28.30
2019-02-04T21:45:38.736Z,26.03
2019-02-04T21:48:09.672Z,26.00
2019-02-04T21:50:40.498Z,22.37
2019-02-04T21:53:11.425Z,30.57
2019-02-04T21:55:42.184Z,28.47
2019-02-04T21:58:12.942Z,25.20
2019-02-04T22:00:43.577Z,28.03
2019-02-04T22:03:14.047Z,26.40
2019-02-04T22:05:44.771Z,29.07
2019-02-04T22:08:15.451Z,29.77
2019-02-04T22:10:46.414Z,31.67
2019-02-04T22:13:16.772Z,26.70
2019-02-04T22:15:47.480Z,33.30
2019-02-04T22:18:17.838Z,32.67
2019-02-04T22:20:48.468Z,29.83
2019-02-04T22:23:18.899Z,34.05
2019-02-04T22:25:49.307Z,32.80
2019-02-04T22:28:19.612Z,34.27
2019-02-04T22:30:51.865Z,33.60
2019-02-04T22:33:22.240Z,35.57
2019-02-04T22:35:52.830Z,35.85
2019-02-04T22:38:23.272Z,32.70
2019-02-04T22:40:53.682Z,37.87
2019-02-04T22:43:24.063Z,33.57
2019-02-04T22:45:54.435Z,37.30
2019-02-04T22:48:25.258Z,34.18
2019-02-04T22:50:55.581Z,37.40
2019-02-04T22:53:25.908Z,34.83
2019-02-04T22:55:56.352Z,36.17
2019-02-04T22:58:26.679Z,39.63
2019-02-04T23:01:23.556Z,36.87
2019-02-04T23:03:53.904Z,36.35
2019-02-04T23:06:24.418Z,37.33
2019-02-04T23:09:02.823Z,41.83
2019-02-04T23:11:33.183Z,40.03
2019-02-04T23:14:03.429Z,38.70
2019-02-04T23:16:33.817Z,38.10
2019-02-04T23:19:04.201Z,41.25
2019-02-04T23:21:34.578Z,42.90
2019-02-04T23:24:05.770Z,48.67
2019-02-04T23:26:36.172Z,40.03
2019-02-04T23:29:07.487Z,42.57
2019-02-04T23:31:37.936Z,44.73
2019-02-04T23:34:08.333Z,43.17
2019-02-04T23:36:38.783Z,47.50
2019-02-04T23:41:47.764Z,50.87
2019-02-04T23:44:18.153Z,48.13
2019-02-04T23:46:48.692Z,44.37
2019-02-04T23:49:18.988Z,43.98
2019-02-04T23:51:49.528Z,51.53
2019-02-04T23:54:19.923Z,52.47
2019-02-04T23:56:50.265Z,48.57
2019-02-04T23:59:20.555Z,50.60
